sensor_id;sensor_type;location;lat;lon;timestamp;P1;durP1;ratioP1;P2;durP2;ratioP2
28828;SDS011;15966;51.540;11.870;2023-05-21T00:00:04;27.00;;;24.02;;
28828;SDS011;15966;51.540;11.870;2023-05-21T00:02:34;31.15;;;27.33;;
28828;SDS011;15966;51.540;11.870;2023-05-21T00:05:00;28.13;;;25.23;;
28828;SDS011;15966;51.540;11.870;2023-05-21T00:07:27;26.95;;;24.25;;
28828;SDS011;15966;51.540;11.870;2023-05-21T00:09:55;28.42;;;25.42;;
28828;SDS011;15966;51.540;11.870;2023-05-21T00:12:21;26.75;;;24.15;;
28828;SDS011;15966;51.540;11.870;2023-05-21T00:14:47;26.58;;;23.88;;
28828;SDS011;15966;51.540;11.870;2023-05-21T00:17:13;27.38;;;24.52;;
28828;SDS011;15966;51.540;11.870;2023-05-21T00:19:39;29.60;;;25.67;;
28828;SDS011;15966;51.540;11.870;2023-05-21T00:22:05;26.77;;;24.08;;
28828;SDS011;15966;51.540;11.870;2023-05-21T00:24:32;26.58;;;23.90;;
28828;SDS011;15966;51.540;11.870;2023-05-21T00:26:58;28.33;;;25.15;;
28828;SDS011;15966;51.540;11.870;2023-05-21T00:29:24;29.33;;;26.38;;
28828;SDS011;15966;51.540;11.870;2023-05-21T00:31:51;29.63;;;26.52;;
28828;SDS011;15966;51.540;11.870;2023-05-21T00:34:17;27.15;;;24.33;;
28828;SDS011;15966;51.540;11.870;2023-05-21T00:36:44;27.70;;;24.80;;
28828;SDS011;15966;51.540;11.870;2023-05-21T00:39:13;26.42;;;23.85;;
28828;SDS011;15966;51.540;11.870;2023-05-21T00:41:39;27.45;;;24.55;;
28828;SDS011;15966;51.540;11.870;2023-05-21T00:44:07;28.13;;;25.33;;
28828;SDS011;15966;51.540;11.870;2023-05-21T00:46:33;27.50;;;24.80;;
28828;SDS011;15966;51.540;11.870;2023-05-21T00:48:59;28.58;;;25.40;;
28828;SDS011;15966;51.540;11.870;2023-05-21T00:51:26;31.80;;;28.38;;
28828;SDS011;15966;51.540;11.870;2023-05-21T00:53:54;29.58;;;26.33;;
28828;SDS011;15966;51.540;11.870;2023-05-21T00:56:21;29.20;;;26.17;;
28828;SDS011;15966;51.540;11.870;2023-05-21T01:01:15;27.65;;;24.73;;
28828;SDS011;15966;51.540;11.870;2023-05-21T01:03:42;30.67;;;27.58;;
28828;SDS011;15966;51.540;11.870;2023-05-21T01:06:09;29.10;;;26.10;;
28828;SDS011;15966;51.540;11.870;2023-05-21T01:08:35;30.50;;;27.47;;
28828;SDS011;15966;51.540;11.870;2023-05-21T01:11:02;27.67;;;24.38;;
28828;SDS011;15966;51.540;11.870;2023-05-21T01:13:30;31.70;;;25.08;;
28828;SDS011;15966;51.540;11.870;2023-05-21T01:15:56;28.83;;;25.60;;
28828;SDS011;15966;51.540;11.870;2023-05-21T01:18:23;27.77;;;24.85;;
28828;SDS011;15966;51.540;11.870;2023-05-21T01:20:49;27.58;;;24.70;;
28828;SDS011;15966;51.540;11.870;2023-05-21T01:23:16;26.80;;;23.73;;
28828;SDS011;15966;51.540;11.870;2023-05-21T01:25:43;26.97;;;24.07;;
28828;SDS011;15966;51.540;11.870;2023-05-21T01:28:10;26.92;;;24.20;;
28828;SDS011;15966;51.540;11.870;2023-05-21T01:30:36;29.10;;;26.10;;
28828;SDS011;15966;51.540;11.870;2023-05-21T01:33:28;28.48;;;25.48;;
28828;SDS011;15966;51.540;11.870;2023-05-21T01:36:03;29.63;;;26.65;;
28828;SDS011;15966;51.540;11.870;2023-05-21T01:38:40;30.50;;;26.90;;
28828;SDS011;15966;51.540;11.870;2023-05-21T01:41:13;29.00;;;26.00;;
28828;SDS011;15966;51.540;11.870;2023-05-21T01:43:42;30.67;;;27.30;;
28828;SDS011;15966;51.540;11.870;2023-05-21T01:48:37;29.95;;;26.88;;
28828;SDS011;15966;51.540;11.870;2023-05-21T01:51:04;31.17;;;27.98;;
28828;SDS011;15966;51.540;11.870;2023-05-21T01:53:30;31.95;;;28.50;;
28828;SDS011;15966;51.540;11.870;2023-05-21T01:55:56;33.42;;;29.33;;
28828;SDS011;15966;51.540;11.870;2023-05-21T01:58:23;31.73;;;28.42;;
28828;SDS011;15966;51.540;11.870;2023-05-21T02:00:49;28.67;;;25.73;;
28828;SDS011;15966;51.540;11.870;2023-05-21T02:03:16;33.63;;;29.00;;
28828;SDS011;15966;51.540;11.870;2023-05-21T02:05:43;33.53;;;30.00;;
28828;SDS011;15966;51.540;11.870;2023-05-21T02:08:09;31.73;;;28.23;;
28828;SDS011;15966;51.540;11.870;2023-05-21T02:10:36;34.65;;;30.52;;
28828;SDS011;15966;51.540;11.870;2023-05-21T02:13:02;31.20;;;27.88;;
28828;SDS011;15966;51.540;11.870;2023-05-21T02:15:29;34.08;;;30.42;;
28828;SDS011;15966;51.540;11.870;2023-05-21T02:17:58;34.63;;;28.35;;
28828;SDS011;15966;51.540;11.870;2023-05-21T02:20:24;29.08;;;26.17;;
28828;SDS011;15966;51.540;11.870;2023-05-21T02:22:50;30.88;;;27.40;;
28828;SDS011;15966;51.540;11.870;2023-05-21T02:25:17;32.17;;;28.77;;
28828;SDS011;15966;51.540;11.870;2023-05-21T02:27:44;29.52;;;26.55;;
28828;SDS011;15966;51.540;11.870;2023-05-21T02:30:17;32.08;;;28.23;;
28828;SDS011;15966;51.540;11.870;2023-05-21T02:32:44;31.58;;;27.90;;
28828;SDS011;15966;51.540;11.870;2023-05-21T02:35:12;29.70;;;26.73;;
28828;SDS011;15966;51.540;11.870;2023-05-21T02:37:38;31.52;;;28.27;;
28828;SDS011;15966;51.540;11.870;2023-05-21T02:40:05;30.88;;;26.95;;
28828;SDS011;15966;51.540;11.870;2023-05-21T02:42:32;32.45;;;27.60;;
28828;SDS011;15966;51.540;11.870;2023-05-21T02:44:58;30.95;;;26.95;;
28828;SDS011;15966;51.540;11.870;2023-05-21T02:47:24;28.73;;;25.67;;
28828;SDS011;15966;51.540;11.870;2023-05-21T02:49:51;27.80;;;24.65;;
28828;SDS011;15966;51.540;11.870;2023-05-21T02:52:18;31.02;;;27.73;;
28828;SDS011;15966;51.540;11.870;2023-05-21T02:54:47;28.90;;;25.05;;
28828;SDS011;15966;51.540;11.870;2023-05-21T02:57:14;30.80;;;27.70;;
28828;SDS011;15966;51.540;11.870;2023-05-21T02:59:42;33.15;;;26.42;;
28828;SDS011;15966;51.540;11.870;2023-05-21T03:02:09;29.90;;;26.83;;
28828;SDS011;15966;51.540;11.870;2023-05-21T03:04:35;31.65;;;28.08;;
28828;SDS011;15966;51.540;11.870;2023-05-21T03:09:29;30.05;;;26.85;;
28828;SDS011;15966;51.540;11.870;2023-05-21T03:11:55;29.92;;;26.27;;
28828;SDS011;15966;51.540;11.870;2023-05-21T03:14:21;30.63;;;27.60;;
28828;SDS011;15966;51.540;11.870;2023-05-21T03:16:48;27.75;;;24.85;;
28828;SDS011;15966;51.540;11.870;2023-05-21T03:19:15;31.25;;;28.05;;
28828;SDS011;15966;51.540;11.870;2023-05-21T03:21:41;27.88;;;24.98;;
28828;SDS011;15966;51.540;11.870;2023-05-21T03:24:07;29.35;;;26.25;;
28828;SDS011;15966;51.540;11.870;2023-05-21T03:26:33;28.38;;;25.42;;
28828;SDS011;15966;51.540;11.870;2023-05-21T03:28:59;33.47;;;27.95;;
28828;SDS011;15966;51.540;11.870;2023-05-21T03:31:26;28.80;;;25.83;;
28828;SDS011;15966;51.540;11.870;2023-05-21T03:33:52;30.48;;;27.27;;
28828;SDS011;15966;51.540;11.870;2023-05-21T03:36:18;31.90;;;28.60;;
28828;SDS011;15966;51.540;11.870;2023-05-21T03:38:44;29.05;;;25.98;;
28828;SDS011;15966;51.540;11.870;2023-05-21T03:41:11;30.15;;;26.95;;
28828;SDS011;15966;51.540;11.870;2023-05-21T03:43:37;26.70;;;23.73;;
28828;SDS011;15966;51.540;11.870;2023-05-21T03:46:03;27.48;;;24.70;;
28828;SDS011;15966;51.540;11.870;2023-05-21T03:48:29;28.77;;;25.83;;
28828;SDS011;15966;51.540;11.870;2023-05-21T03:50:55;29.02;;;25.88;;
28828;SDS011;15966;51.540;11.870;2023-05-21T03:53:21;28.15;;;25.25;;
28828;SDS011;15966;51.540;11.870;2023-05-21T03:55:47;29.20;;;26.23;;
28828;SDS011;15966;51.540;11.870;2023-05-21T03:58:18;28.77;;;24.23;;
28828;SDS011;15966;51.540;11.870;2023-05-21T04:00:46;26.38;;;23.65;;
28828;SDS011;15966;51.540;11.870;2023-05-21T04:03:12;29.25;;;26.15;;
28828;SDS011;15966;51.540;11.870;2023-05-21T04:05:39;28.60;;;25.70;;
28828;SDS011;15966;51.540;11.870;2023-05-21T04:08:08;29.33;;;26.00;;
28828;SDS011;15966;51.540;11.870;2023-05-21T04:10:34;29.23;;;26.02;;
28828;SDS011;15966;51.540;11.870;2023-05-21T04:13:00;27.80;;;24.80;;
28828;SDS011;15966;51.540;11.870;2023-05-21T04:15:26;31.05;;;27.48;;
28828;SDS011;15966;51.540;11.870;2023-05-21T04:17:52;28.63;;;25.63;;
28828;SDS011;15966;51.540;11.870;2023-05-21T04:20:19;31.95;;;27.13;;
28828;SDS011;15966;51.540;11.870;2023-05-21T04:22:45;28.20;;;25.25;;
28828;SDS011;15966;51.540;11.870;2023-05-21T04:25:11;30.67;;;27.48;;
28828;SDS011;15966;51.540;11.870;2023-05-21T04:27:37;30.90;;;27.73;;
28828;SDS011;15966;51.540;11.870;2023-05-21T04:30:04;31.58;;;28.30;;
28828;SDS011;15966;51.540;11.870;2023-05-21T04:32:30;31.60;;;28.30;;
28828;SDS011;15966;51.540;11.870;2023-05-21T04:34:58;33.13;;;29.42;;
28828;SDS011;15966;51.540;11.870;2023-05-21T04:37:28;32.17;;;28.58;;
28828;SDS011;15966;51.540;11.870;2023-05-21T04:39:56;34.35;;;29.75;;
28828;SDS011;15966;51.540;11.870;2023-05-21T04:42:22;31.90;;;27.73;;
28828;SDS011;15966;51.540;11.870;2023-05-21T04:44:48;31.83;;;28.38;;
28828;SDS011;15966;51.540;11.870;2023-05-21T04:47:15;30.85;;;27.58;;
28828;SDS011;15966;51.540;11.870;2023-05-21T04:49:43;31.98;;;28.63;;
28828;SDS011;15966;51.540;11.870;2023-05-21T04:54:36;26.10;;;23.40;;
28828;SDS011;15966;51.540;11.870;2023-05-21T04:57:03;30.75;;;27.48;;
28828;SDS011;15966;51.540;11.870;2023-05-21T04:59:30;33.17;;;29.52;;
28828;SDS011;15966;51.540;11.870;2023-05-21T05:01:56;32.70;;;29.10;;
28828;SDS011;15966;51.540;11.870;2023-05-21T05:04:22;29.77;;;26.65;;
28828;SDS011;15966;51.540;11.870;2023-05-21T05:06:48;26.85;;;24.00;;
28828;SDS011;15966;51.540;11.870;2023-05-21T05:09:15;33.08;;;25.48;;
28828;SDS011;15966;51.540;11.870;2023-05-21T05:11:42;30.27;;;27.08;;
28828;SDS011;15966;51.540;11.870;2023-05-21T05:14:08;27.60;;;24.13;;
28828;SDS011;15966;51.540;11.870;2023-05-21T05:16:34;29.65;;;26.73;;
28828;SDS011;15966;51.540;11.870;2023-05-21T05:19:00;28.98;;;25.88;;
28828;SDS011;15966;51.540;11.870;2023-05-21T05:21:26;28.67;;;25.45;;
28828;SDS011;15966;51.540;11.870;2023-05-21T05:23:52;30.50;;;27.30;;
28828;SDS011;15966;51.540;11.870;2023-05-21T05:26:18;33.40;;;28.25;;
28828;SDS011;15966;51.540;11.870;2023-05-21T05:28:45;28.93;;;25.87;;
28828;SDS011;15966;51.540;11.870;2023-05-21T05:31:11;27.38;;;24.30;;
28828;SDS011;15966;51.540;11.870;2023-05-21T05:33:37;29.15;;;26.13;;
28828;SDS011;15966;51.540;11.870;2023-05-21T05:36:05;28.85;;;25.92;;
28828;SDS011;15966;51.540;11.870;2023-05-21T05:38:31;25.02;;;22.42;;
28828;SDS011;15966;51.540;11.870;2023-05-21T05:40:57;26.87;;;24.20;;
28828;SDS011;15966;51.540;11.870;2023-05-21T05:43:24;26.42;;;23.67;;
28828;SDS011;15966;51.540;11.870;2023-05-21T05:45:50;29.50;;;26.38;;
28828;SDS011;15966;51.540;11.870;2023-05-21T05:48:16;26.77;;;24.02;;
28828;SDS011;15966;51.540;11.870;2023-05-21T05:50:43;27.67;;;24.80;;
28828;SDS011;15966;51.540;11.870;2023-05-21T05:53:10;26.70;;;24.02;;
28828;SDS011;15966;51.540;11.870;2023-05-21T05:55:37;29.65;;;25.48;;
28828;SDS011;15966;51.540;11.870;2023-05-21T05:58:03;28.38;;;25.40;;
28828;SDS011;15966;51.540;11.870;2023-05-21T06:00:29;27.10;;;24.23;;
28828;SDS011;15966;51.540;11.870;2023-05-21T06:02:56;26.52;;;23.98;;
28828;SDS011;15966;51.540;11.870;2023-05-21T06:05:22;26.63;;;23.35;;
28828;SDS011;15966;51.540;11.870;2023-05-21T06:07:48;26.95;;;24.10;;
28828;SDS011;15966;51.540;11.870;2023-05-21T06:10:14;25.92;;;22.83;;
28828;SDS011;15966;51.540;11.870;2023-05-21T06:12:40;24.90;;;22.27;;
28828;SDS011;15966;51.540;11.870;2023-05-21T06:15:06;25.60;;;22.00;;
28828;SDS011;15966;51.540;11.870;2023-05-21T06:17:33;27.33;;;23.35;;
28828;SDS011;15966;51.540;11.870;2023-05-21T06:19:59;26.95;;;24.17;;
28828;SDS011;15966;51.540;11.870;2023-05-21T06:22:25;25.88;;;23.23;;
28828;SDS011;15966;51.540;11.870;2023-05-21T06:24:51;26.75;;;23.95;;
28828;SDS011;15966;51.540;11.870;2023-05-21T06:27:17;25.75;;;23.13;;
28828;SDS011;15966;51.540;11.870;2023-05-21T06:29:43;26.05;;;23.45;;
28828;SDS011;15966;51.540;11.870;2023-05-21T06:32:10;25.98;;;23.27;;
28828;SDS011;15966;51.540;11.870;2023-05-21T06:34:36;22.60;;;20.35;;
28828;SDS011;15966;51.540;11.870;2023-05-21T06:37:02;25.40;;;22.98;;
28828;SDS011;15966;51.540;11.870;2023-05-21T06:39:28;26.23;;;23.73;;
28828;SDS011;15966;51.540;11.870;2023-05-21T06:41:54;26.02;;;23.48;;
28828;SDS011;15966;51.540;11.870;2023-05-21T06:44:20;25.30;;;22.70;;
28828;SDS011;15966;51.540;11.870;2023-05-21T06:46:46;22.83;;;20.63;;
28828;SDS011;15966;51.540;11.870;2023-05-21T06:49:13;24.92;;;22.45;;
28828;SDS011;15966;51.540;11.870;2023-05-21T06:51:39;25.63;;;23.02;;
28828;SDS011;15966;51.540;11.870;2023-05-21T06:54:05;24.67;;;22.02;;
28828;SDS011;15966;51.540;11.870;2023-05-21T06:56:31;23.48;;;21.17;;
28828;SDS011;15966;51.540;11.870;2023-05-21T06:58:57;24.73;;;22.33;;
28828;SDS011;15966;51.540;11.870;2023-05-21T07:01:23;25.50;;;22.88;;
28828;SDS011;15966;51.540;11.870;2023-05-21T07:03:50;26.05;;;23.08;;
28828;SDS011;15966;51.540;11.870;2023-05-21T07:06:16;24.87;;;22.27;;
28828;SDS011;15966;51.540;11.870;2023-05-21T07:08:42;24.83;;;22.20;;
28828;SDS011;15966;51.540;11.870;2023-05-21T07:11:08;23.30;;;20.83;;
28828;SDS011;15966;51.540;11.870;2023-05-21T07:13:35;25.75;;;23.30;;
28828;SDS011;15966;51.540;11.870;2023-05-21T07:16:01;24.40;;;21.88;;
28828;SDS011;15966;51.540;11.870;2023-05-21T07:18:27;22.70;;;20.40;;
28828;SDS011;15966;51.540;11.870;2023-05-21T07:20:53;24.00;;;21.80;;
28828;SDS011;15966;51.540;11.870;2023-05-21T07:23:20;25.80;;;23.20;;
28828;SDS011;15966;51.540;11.870;2023-05-21T07:25:47;22.52;;;20.38;;
28828;SDS011;15966;51.540;11.870;2023-05-21T07:28:13;23.27;;;20.98;;
28828;SDS011;15966;51.540;11.870;2023-05-21T07:30:39;24.83;;;22.33;;
28828;SDS011;15966;51.540;11.870;2023-05-21T07:33:05;24.00;;;21.55;;
28828;SDS011;15966;51.540;11.870;2023-05-21T07:35:31;23.58;;;21.40;;
28828;SDS011;15966;51.540;11.870;2023-05-21T07:37:57;25.95;;;23.30;;
28828;SDS011;15966;51.540;11.870;2023-05-21T07:40:23;23.58;;;21.20;;
28828;SDS011;15966;51.540;11.870;2023-05-21T07:42:50;24.08;;;21.27;;
28828;SDS011;15966;51.540;11.870;2023-05-21T07:45:16;28.80;;;23.05;;
28828;SDS011;15966;51.540;11.870;2023-05-21T07:47:43;24.15;;;21.77;;
28828;SDS011;15966;51.540;11.870;2023-05-21T07:50:10;23.48;;;21.25;;
28828;SDS011;15966;51.540;11.870;2023-05-21T07:52:37;23.02;;;20.73;;
28828;SDS011;15966;51.540;11.870;2023-05-21T07:55:03;23.35;;;21.05;;
28828;SDS011;15966;51.540;11.870;2023-05-21T07:57:30;24.58;;;22.25;;
28828;SDS011;15966;51.540;11.870;2023-05-21T07:59:56;23.30;;;21.10;;
28828;SDS011;15966;51.540;11.870;2023-05-21T08:02:22;23.70;;;21.17;;
28828;SDS011;15966;51.540;11.870;2023-05-21T08:04:48;25.98;;;21.08;;
28828;SDS011;15966;51.540;11.870;2023-05-21T08:07:14;23.05;;;20.85;;
28828;SDS011;15966;51.540;11.870;2023-05-21T08:09:43;24.63;;;22.23;;
28828;SDS011;15966;51.540;11.870;2023-05-21T08:12:09;22.75;;;20.65;;
28828;SDS011;15966;51.540;11.870;2023-05-21T08:14:39;24.02;;;21.55;;
28828;SDS011;15966;51.540;11.870;2023-05-21T08:17:07;21.27;;;19.27;;
28828;SDS011;15966;51.540;11.870;2023-05-21T08:19:34;21.77;;;19.67;;
28828;SDS011;15966;51.540;11.870;2023-05-21T08:22:00;22.95;;;20.85;;
28828;SDS011;15966;51.540;11.870;2023-05-21T08:24:27;22.67;;;20.63;;
28828;SDS011;15966;51.540;11.870;2023-05-21T08:26:53;22.13;;;19.83;;
28828;SDS011;15966;51.540;11.870;2023-05-21T08:29:19;22.83;;;20.85;;
28828;SDS011;15966;51.540;11.870;2023-05-21T08:31:45;21.60;;;19.50;;
28828;SDS011;15966;51.540;11.870;2023-05-21T08:34:11;21.65;;;19.48;;
28828;SDS011;15966;51.540;11.870;2023-05-21T08:36:37;23.88;;;20.73;;
28828;SDS011;15966;51.540;11.870;2023-05-21T08:39:06;21.67;;;19.67;;
28828;SDS011;15966;51.540;11.870;2023-05-21T08:41:33;22.00;;;19.95;;
28828;SDS011;15966;51.540;11.870;2023-05-21T08:44:00;21.23;;;19.33;;
28828;SDS011;15966;51.540;11.870;2023-05-21T08:46:31;22.27;;;19.98;;
28828;SDS011;15966;51.540;11.870;2023-05-21T08:49:00;21.35;;;19.23;;
28828;SDS011;15966;51.540;11.870;2023-05-21T08:53:54;22.60;;;20.35;;
28828;SDS011;15966;51.540;11.870;2023-05-21T08:56:21;20.83;;;18.67;;
28828;SDS011;15966;51.540;11.870;2023-05-21T08:58:48;21.95;;;19.85;;
28828;SDS011;15966;51.540;11.870;2023-05-21T09:01:16;19.88;;;18.05;;
28828;SDS011;15966;51.540;11.870;2023-05-21T09:03:42;18.73;;;17.05;;
28828;SDS011;15966;51.540;11.870;2023-05-21T09:06:09;19.45;;;17.55;;
28828;SDS011;15966;51.540;11.870;2023-05-21T09:08:38;19.05;;;17.15;;
28828;SDS011;15966;51.540;11.870;2023-05-21T09:11:07;18.98;;;17.17;;
28828;SDS011;15966;51.540;11.870;2023-05-21T09:13:33;21.70;;;16.85;;
28828;SDS011;15966;51.540;11.870;2023-05-21T09:16:00;18.02;;;16.17;;
28828;SDS011;15966;51.540;11.870;2023-05-21T09:18:26;18.70;;;16.90;;
28828;SDS011;15966;51.540;11.870;2023-05-21T09:20:52;19.30;;;17.30;;
28828;SDS011;15966;51.540;11.870;2023-05-21T09:23:20;17.48;;;15.70;;
28828;SDS011;15966;51.540;11.870;2023-05-21T09:25:46;18.05;;;16.20;;
28828;SDS011;15966;51.540;11.870;2023-05-21T09:28:13;18.17;;;16.27;;
28828;SDS011;15966;51.540;11.870;2023-05-21T09:33:10;18.65;;;15.63;;
28828;SDS011;15966;51.540;11.870;2023-05-21T09:35:36;16.55;;;15.07;;
28828;SDS011;15966;51.540;11.870;2023-05-21T09:38:08;20.02;;;16.02;;
28828;SDS011;15966;51.540;11.870;2023-05-21T09:40:34;16.98;;;15.27;;
28828;SDS011;15966;51.540;11.870;2023-05-21T09:43:00;15.60;;;14.20;;
28828;SDS011;15966;51.540;11.870;2023-05-21T09:45:27;16.20;;;14.77;;
28828;SDS011;15966;51.540;11.870;2023-05-21T09:47:53;17.15;;;15.63;;
28828;SDS011;15966;51.540;11.870;2023-05-21T09:50:21;15.75;;;14.45;;
28828;SDS011;15966;51.540;11.870;2023-05-21T09:52:48;15.68;;;14.20;;
28828;SDS011;15966;51.540;11.870;2023-05-21T09:55:17;15.15;;;13.60;;
28828;SDS011;15966;51.540;11.870;2023-05-21T09:57:46;15.63;;;14.02;;
28828;SDS011;15966;51.540;11.870;2023-05-21T10:00:19;15.82;;;14.07;;
28828;SDS011;15966;51.540;11.870;2023-05-21T10:03:02;15.88;;;14.23;;
28828;SDS011;15966;51.540;11.870;2023-05-21T10:05:33;16.05;;;14.60;;
28828;SDS011;15966;51.540;11.870;2023-05-21T10:08:00;15.32;;;13.93;;
28828;SDS011;15966;51.540;11.870;2023-05-21T10:12:54;15.25;;;13.95;;
28828;SDS011;15966;51.540;11.870;2023-05-21T10:15:25;14.88;;;13.48;;
28828;SDS011;15966;51.540;11.870;2023-05-21T10:17:53;16.35;;;14.45;;
28828;SDS011;15966;51.540;11.870;2023-05-21T10:20:20;16.48;;;14.77;;
28828;SDS011;15966;51.540;11.870;2023-05-21T10:22:47;15.48;;;13.98;;
28828;SDS011;15966;51.540;11.870;2023-05-21T10:25:15;14.80;;;13.45;;
28828;SDS011;15966;51.540;11.870;2023-05-21T10:27:41;14.15;;;12.77;;
28828;SDS011;15966;51.540;11.870;2023-05-21T10:30:07;16.85;;;12.13;;
28828;SDS011;15966;51.540;11.870;2023-05-21T10:32:34;13.32;;;12.05;;
28828;SDS011;15966;51.540;11.870;2023-05-21T10:35:00;14.32;;;13.00;;
28828;SDS011;15966;51.540;11.870;2023-05-21T10:37:26;13.20;;;11.90;;
28828;SDS011;15966;51.540;11.870;2023-05-21T10:39:53;14.75;;;13.10;;
28828;SDS011;15966;51.540;11.870;2023-05-21T10:50:11;14.00;;;12.68;;
28828;SDS011;15966;51.540;11.870;2023-05-21T10:55:58;13.82;;;12.52;;
28828;SDS011;15966;51.540;11.870;2023-05-21T11:01:26;12.93;;;11.63;;
28828;SDS011;15966;51.540;11.870;2023-05-21T11:03:53;14.07;;;12.27;;
28828;SDS011;15966;51.540;11.870;2023-05-21T11:06:26;13.53;;;12.23;;
28828;SDS011;15966;51.540;11.870;2023-05-21T11:08:52;11.30;;;10.30;;
28828;SDS011;15966;51.540;11.870;2023-05-21T11:14:29;14.95;;;9.80;;
28828;SDS011;15966;51.540;11.870;2023-05-21T11:16:59;12.15;;;11.05;;
28828;SDS011;15966;51.540;11.870;2023-05-21T11:19:41;11.88;;;10.60;;
28828;SDS011;15966;51.540;11.870;2023-05-21T11:22:21;11.45;;;10.32;;
28828;SDS011;15966;51.540;11.870;2023-05-21T11:24:48;11.15;;;10.23;;
28828;SDS011;15966;51.540;11.870;2023-05-21T11:27:34;10.75;;;9.77;;
28828;SDS011;15966;51.540;11.870;2023-05-21T11:32:37;11.18;;;10.05;;
28828;SDS011;15966;51.540;11.870;2023-05-21T11:35:06;11.48;;;10.38;;
28828;SDS011;15966;51.540;11.870;2023-05-21T11:37:33;12.25;;;11.20;;
28828;SDS011;15966;51.540;11.870;2023-05-21T11:40:15;11.45;;;10.25;;
28828;SDS011;15966;51.540;11.870;2023-05-21T11:42:50;11.65;;;10.65;;
28828;SDS011;15966;51.540;11.870;2023-05-21T11:45:18;11.77;;;10.68;;
28828;SDS011;15966;51.540;11.870;2023-05-21T11:47:48;12.02;;;10.73;;
28828;SDS011;15966;51.540;11.870;2023-05-21T11:50:17;11.55;;;10.50;;
28828;SDS011;15966;51.540;11.870;2023-05-21T11:52:44;11.65;;;10.57;;
28828;SDS011;15966;51.540;11.870;2023-05-21T11:55:11;12.23;;;11.13;;
28828;SDS011;15966;51.540;11.870;2023-05-21T11:57:40;10.45;;;9.55;;
28828;SDS011;15966;51.540;11.870;2023-05-21T12:00:11;11.13;;;9.77;;
28828;SDS011;15966;51.540;11.870;2023-05-21T12:02:43;16.02;;;10.63;;
28828;SDS011;15966;51.540;11.870;2023-05-21T12:05:14;11.18;;;10.18;;
28828;SDS011;15966;51.540;11.870;2023-05-21T12:07:40;13.43;;;11.40;;
28828;SDS011;15966;51.540;11.870;2023-05-21T12:10:07;11.63;;;10.63;;
28828;SDS011;15966;51.540;11.870;2023-05-21T12:12:33;12.25;;;10.93;;
28828;SDS011;15966;51.540;11.870;2023-05-21T12:14:59;12.48;;;11.38;;
28828;SDS011;15966;51.540;11.870;2023-05-21T12:17:26;12.57;;;11.40;;
28828;SDS011;15966;51.540;11.870;2023-05-21T12:19:53;11.20;;;10.23;;
28828;SDS011;15966;51.540;11.870;2023-05-21T12:22:21;13.55;;;9.25;;
28828;SDS011;15966;51.540;11.870;2023-05-21T12:24:48;10.32;;;9.25;;
28828;SDS011;15966;51.540;11.870;2023-05-21T12:27:15;11.07;;;9.52;;
28828;SDS011;15966;51.540;11.870;2023-05-21T12:32:09;9.00;;;8.18;;
28828;SDS011;15966;51.540;11.870;2023-05-21T12:34:49;10.63;;;9.38;;
28828;SDS011;15966;51.540;11.870;2023-05-21T12:37:19;8.85;;;7.95;;
28828;SDS011;15966;51.540;11.870;2023-05-21T12:39:47;10.02;;;7.95;;
28828;SDS011;15966;51.540;11.870;2023-05-21T12:42:14;9.02;;;8.18;;
28828;SDS011;15966;51.540;11.870;2023-05-21T12:44:45;13.93;;;8.60;;
28828;SDS011;15966;51.540;11.870;2023-05-21T12:47:11;8.77;;;8.02;;
28828;SDS011;15966;51.540;11.870;2023-05-21T12:52:08;8.75;;;7.88;;
28828;SDS011;15966;51.540;11.870;2023-05-21T12:54:36;8.55;;;7.63;;
28828;SDS011;15966;51.540;11.870;2023-05-21T13:02:21;9.07;;;8.18;;
28828;SDS011;15966;51.540;11.870;2023-05-21T13:04:48;9.10;;;7.88;;
28828;SDS011;15966;51.540;11.870;2023-05-21T13:07:18;8.77;;;7.63;;
28828;SDS011;15966;51.540;11.870;2023-05-21T13:09:44;11.13;;;8.65;;
28828;SDS011;15966;51.540;11.870;2023-05-21T13:12:10;9.65;;;8.65;;
28828;SDS011;15966;51.540;11.870;2023-05-21T13:14:37;9.57;;;8.68;;
28828;SDS011;15966;51.540;11.870;2023-05-21T13:17:03;10.20;;;7.57;;
28828;SDS011;15966;51.540;11.870;2023-05-21T13:19:29;9.35;;;8.45;;
28828;SDS011;15966;51.540;11.870;2023-05-21T13:21:55;9.30;;;8.38;;
28828;SDS011;15966;51.540;11.870;2023-05-21T13:24:21;11.75;;;8.27;;
28828;SDS011;15966;51.540;11.870;2023-05-21T13:26:47;8.15;;;7.35;;
28828;SDS011;15966;51.540;11.870;2023-05-21T13:29:14;10.13;;;7.97;;
28828;SDS011;15966;51.540;11.870;2023-05-21T13:31:41;13.32;;;9.50;;
28828;SDS011;15966;51.540;11.870;2023-05-21T13:34:07;9.38;;;8.40;;
28828;SDS011;15966;51.540;11.870;2023-05-21T13:36:34;9.35;;;8.55;;
28828;SDS011;15966;51.540;11.870;2023-05-21T13:39:00;9.27;;;8.43;;
28828;SDS011;15966;51.540;11.870;2023-05-21T13:41:26;8.47;;;7.77;;
28828;SDS011;15966;51.540;11.870;2023-05-21T13:43:53;7.82;;;7.13;;
28828;SDS011;15966;51.540;11.870;2023-05-21T13:46:19;8.73;;;7.82;;
28828;SDS011;15966;51.540;11.870;2023-05-21T13:48:45;9.75;;;8.80;;
28828;SDS011;15966;51.540;11.870;2023-05-21T13:51:11;9.65;;;8.75;;
28828;SDS011;15966;51.540;11.870;2023-05-21T13:53:37;10.35;;;9.43;;
28828;SDS011;15966;51.540;11.870;2023-05-21T13:56:03;11.23;;;9.32;;
28828;SDS011;15966;51.540;11.870;2023-05-21T13:58:29;9.60;;;8.73;;
28828;SDS011;15966;51.540;11.870;2023-05-21T14:01:01;9.45;;;8.38;;
28828;SDS011;15966;51.540;11.870;2023-05-21T14:03:28;10.40;;;9.40;;
28828;SDS011;15966;51.540;11.870;2023-05-21T14:05:54;11.17;;;9.13;;
28828;SDS011;15966;51.540;11.870;2023-05-21T14:08:20;8.80;;;8.10;;
28828;SDS011;15966;51.540;11.870;2023-05-21T14:10:48;10.75;;;9.70;;
28828;SDS011;15966;51.540;11.870;2023-05-21T14:15:42;10.30;;;9.25;;
28828;SDS011;15966;51.540;11.870;2023-05-21T14:18:08;13.07;;;8.98;;
28828;SDS011;15966;51.540;11.870;2023-05-21T14:20:36;9.88;;;8.88;;
28828;SDS011;15966;51.540;11.870;2023-05-21T14:23:03;11.68;;;7.80;;
28828;SDS011;15966;51.540;11.870;2023-05-21T14:25:29;9.80;;;9.00;;
28828;SDS011;15966;51.540;11.870;2023-05-21T14:27:55;9.40;;;8.50;;
28828;SDS011;15966;51.540;11.870;2023-05-21T14:30:21;8.88;;;8.02;;
28828;SDS011;15966;51.540;11.870;2023-05-21T14:32:47;10.07;;;9.17;;
28828;SDS011;15966;51.540;11.870;2023-05-21T14:35:13;10.55;;;9.52;;
28828;SDS011;15966;51.540;11.870;2023-05-21T14:37:39;9.93;;;9.03;;
28828;SDS011;15966;51.540;11.870;2023-05-21T14:40:06;13.25;;;9.95;;
28828;SDS011;15966;51.540;11.870;2023-05-21T14:42:32;10.57;;;9.50;;
28828;SDS011;15966;51.540;11.870;2023-05-21T14:44:59;11.73;;;10.52;;
28828;SDS011;15966;51.540;11.870;2023-05-21T14:47:25;13.50;;;10.52;;
28828;SDS011;15966;51.540;11.870;2023-05-21T14:49:51;10.63;;;9.43;;
28828;SDS011;15966;51.540;11.870;2023-05-21T14:52:17;10.98;;;9.88;;
28828;SDS011;15966;51.540;11.870;2023-05-21T14:54:43;10.27;;;9.37;;
28828;SDS011;15966;51.540;11.870;2023-05-21T14:57:09;10.90;;;9.90;;
28828;SDS011;15966;51.540;11.870;2023-05-21T14:59:35;12.10;;;10.90;;